Estación Meteorológica Peña el Pijo (Robertgarden) [ 07/20/18 16:42:25 CEST ]

Fecha Hora Presion(HPa) Temp (°C) Humedad % Rocio (°C) Viento ( m/s) Direccion Lluvia 1Hora(mm) Lluvia 24H(mm) LLuvia Total(mm)
2018-Mar-31 01:01:31 997.700 4.6 71 -0.2 6.8 N   2.07 184.92
2018-Mar-31 02:01:10 997.800 3.9 79 0.5       2.07 184.92
2018-Mar-31 03:01:46 998.400 3.3 81 0.4       2.07 184.92
2018-Mar-31 04:01:47 998.800 3.6 78 0.1     0.51 2.59 185.44
2018-Mar-31 05:10:04 998.800 3.3 78 -0.2 5.2 N   2.59 185.44
2018-Mar-31 06:01:42 999.000 3.1 74 -1.1 0.8 NNW   2.59 185.44
2018-Mar-31 07:01:40 999.400 2.7 67 -2.8 5.9 WNW   2.59 185.44
2018-Mar-31 08:01:44 999.700 2.7 70 -2.2 2.2 NW   2.59 185.44
2018-Mar-31 09:01:43 1000.700 2.9 70 -2.0       2.59 185.44
2018-Mar-31 10:01:45 1002.000 4.5 68 -0.9 2.2 NNW   2.59 185.44
2018-Mar-31 11:01:47 1002.900 7.8 57 -0.2       2.59 185.44
2018-Mar-31 12:01:55 1004.000 8.3 54 -0.5 1.8 NW   2.59 185.44
2018-Mar-31 13:02:11 1005.200 7.8 56 -0.5       2.59 185.44
2018-Mar-31 14:01:49 1005.600 7.8 55 -0.7       2.59 185.44
2018-Mar-31 15:01:41 1005.800 9.1 52 -0.3       2.59 185.44
2018-Mar-31 16:01:50 1005.900 9.9 50 0.0       2.59 185.44
2018-Mar-31 17:01:45 1005.700 10.1 48 -0.4 2.1 NNW   1.03 185.44
2018-Mar-31 18:01:48 1005.900 10.3 48 -0.2       0.51 185.44
2018-Mar-31 19:01:43 1006.200 9.7 48 -0.8       0.51 185.44
2018-Mar-31 20:01:46 1006.800 8.1 55 -0.5       0.51 185.44
2018-Mar-31 21:01:52 1007.500 5.8 62 -0.9       0.51 185.44
2018-Mar-31 22:01:40 1008.600 4.1 67 -1.5       0.51 185.44
2018-Mar-31 23:01:38 1009.400 3.2 71 -1.5       0.51 185.44

Temperatura Máxima:10°    Temperatura Mínima:
Presión Máxima:1009.400 Hpa    Presión Mínima:997.700 Hpa


Volver